createdAt,value
2019-01-13T00:01:23.197Z,22.53
2019-01-13T00:04:11.932Z,23.90
2019-01-13T00:07:00.222Z,26.90
2019-01-13T00:09:48.446Z,31.60
2019-01-13T00:12:37.543Z,23.07
2019-01-13T00:15:25.791Z,33.10
2019-01-13T00:18:13.967Z,25.40
2019-01-13T00:21:02.548Z,23.00
2019-01-13T00:23:51.108Z,23.17
2019-01-13T00:26:39.808Z,28.83
2019-01-13T00:29:28.332Z,27.00
2019-01-13T00:32:16.368Z,29.27
2019-01-13T00:35:05.590Z,26.43
2019-01-13T00:37:53.937Z,20.93
2019-01-13T00:40:42.555Z,29.13
2019-01-13T00:43:30.927Z,25.10
2019-01-13T00:46:19.892Z,33.17
2019-01-13T00:49:08.520Z,30.20
2019-01-13T00:51:56.531Z,28.10
2019-01-13T00:54:44.884Z,27.43
2019-01-13T00:57:33.373Z,24.00
2019-01-13T01:00:26.516Z,25.80
2019-01-13T01:03:12.627Z,28.23
2019-01-13T01:06:01.520Z,30.17
2019-01-13T01:08:49.355Z,30.53
2019-01-13T01:11:37.788Z,23.73
2019-01-13T01:14:26.562Z,24.77
2019-01-13T01:17:14.937Z,23.23
2019-01-13T01:20:03.493Z,28.57
2019-01-13T01:22:51.857Z,24.17
2019-01-13T01:25:40.322Z,27.00
2019-01-13T01:28:29.096Z,26.50
2019-01-13T01:31:17.232Z,21.83
2019-01-13T01:34:05.679Z,22.57
2019-01-13T01:36:54.321Z,31.50
2019-01-13T01:39:43.117Z,30.63
2019-01-13T01:42:31.248Z,29.77
2019-01-13T01:45:20.659Z,31.33
2019-01-13T01:48:08.923Z,31.47
2019-01-13T01:50:57.175Z,29.83
2019-01-13T01:53:45.243Z,30.70
2019-01-13T01:56:33.576Z,34.70
2019-01-13T01:59:22.452Z,33.20
2019-01-13T02:02:11.232Z,33.57
2019-01-13T02:04:59.577Z,34.20
2019-01-13T02:07:48.187Z,36.17
2019-01-13T02:10:36.900Z,33.80
2019-01-13T02:13:25.672Z,40.60
2019-01-13T02:16:14.280Z,37.07
2019-01-13T02:19:02.700Z,41.40
2019-01-13T02:21:50.871Z,41.17
2019-01-13T02:24:39.772Z,35.17
2019-01-13T02:27:28.182Z,40.33
2019-01-13T02:30:18.781Z,37.00
2019-01-13T02:33:06.983Z,37.67
2019-01-13T02:35:55.083Z,42.07
2019-01-13T02:38:43.177Z,40.50
2019-01-13T02:41:30.830Z,40.93
2019-01-13T02:44:19.126Z,37.30
2019-01-13T02:47:07.701Z,38.93
2019-01-13T02:49:55.797Z,43.60
2019-01-13T02:52:43.800Z,38.40
2019-01-13T02:55:32.181Z,41.80
2019-01-13T02:58:20.002Z,44.10
2019-01-13T03:01:08.679Z,46.40
2019-01-13T03:03:56.664Z,36.90
2019-01-13T03:06:45.124Z,41.20
2019-01-13T03:09:32.838Z,45.73
2019-01-13T03:12:20.432Z,41.67
2019-01-13T03:15:08.904Z,43.90
2019-01-13T03:17:57.763Z,36.77
2019-01-13T03:20:46.124Z,48.83
2019-01-13T03:23:33.723Z,42.03
2019-01-13T03:26:21.792Z,46.50
2019-01-13T03:29:10.177Z,41.00
2019-01-13T03:31:58.149Z,44.50
2019-01-13T03:34:46.403Z,40.43
2019-01-13T03:37:34.444Z,47.80
2019-01-13T03:40:24.567Z,41.53
2019-01-13T03:43:12.699Z,40.90
2019-01-13T03:46:01.096Z,37.70
2019-01-13T03:48:49.201Z,42.30
2019-01-13T03:51:37.864Z,39.97
2019-01-13T03:54:26.097Z,41.73
2019-01-13T03:57:14.744Z,47.13
2019-01-13T04:00:02.403Z,43.30
2019-01-13T04:02:50.549Z,47.97
2019-01-13T04:05:39.145Z,40.70
2019-01-13T04:08:27.127Z,39.90
2019-01-13T04:11:15.153Z,44.40
2019-01-13T04:14:02.769Z,41.47
2019-01-13T04:16:51.576Z,38.33
2019-01-13T04:19:40.060Z,34.77
2019-01-13T04:22:28.023Z,40.47
2019-01-13T04:25:15.562Z,33.37
2019-01-13T04:28:04.207Z,36.03
2019-01-13T04:30:51.997Z,35.30
2019-01-13T04:33:40.544Z,37.50
2019-01-13T04:36:28.584Z,35.97
2019-01-13T04:39:16.375Z,31.50
2019-01-13T04:42:04.885Z,29.67
2019-01-13T04:44:53.595Z,22.53
2019-01-13T04:47:41.696Z,27.00
2019-01-13T04:50:29.890Z,28.00
2019-01-13T04:53:18.123Z,27.03
2019-01-13T04:56:05.841Z,30.00
2019-01-13T04:58:53.796Z,31.83
2019-01-13T05:01:42.353Z,35.23
2019-01-13T05:04:30.331Z,33.57
2019-01-13T05:07:19.091Z,29.47
2019-01-13T05:10:10.581Z,36.93
2019-01-13T05:12:59.068Z,36.70
2019-01-13T05:15:47.530Z,38.37
2019-01-13T05:18:35.725Z,30.40
2019-01-13T05:21:24.516Z,34.83
2019-01-13T05:24:13.403Z,35.73
2019-01-13T05:27:01.618Z,30.80
2019-01-13T05:29:49.668Z,30.77
2019-01-13T05:32:37.675Z,36.80
2019-01-13T05:35:26.457Z,37.30
2019-01-13T05:38:14.181Z,33.70
2019-01-13T05:41:02.763Z,36.77
2019-01-13T05:43:51.248Z,36.63
2019-01-13T05:46:39.411Z,40.83
2019-01-13T05:49:28.073Z,39.67
2019-01-13T05:52:16.365Z,44.60
2019-01-13T05:55:05.717Z,41.83
2019-01-13T05:57:54.452Z,44.53
2019-01-13T06:00:43.575Z,46.53
2019-01-13T06:03:31.611Z,43.27
2019-01-13T06:06:19.576Z,48.83
2019-01-13T06:09:08.455Z,43.83
2019-01-13T06:11:56.552Z,49.83
2019-01-13T06:14:44.883Z,51.90
2019-01-13T06:17:33.180Z,46.33
2019-01-13T06:20:23.380Z,44.60
2019-01-13T06:23:11.639Z,50.20
2019-01-13T06:25:59.835Z,42.57
2019-01-13T06:28:48.223Z,44.90
2019-01-13T06:31:36.451Z,45.27
2019-01-13T06:34:24.063Z,46.60
2019-01-13T06:37:12.093Z,39.53
2019-01-13T06:40:00.263Z,41.80
2019-01-13T06:42:48.727Z,40.80
2019-01-13T06:45:37.485Z,38.17
2019-01-13T06:48:25.950Z,35.13
2019-01-13T06:51:13.678Z,36.90
2019-01-13T06:54:01.308Z,34.90
2019-01-13T06:56:49.804Z,33.03
2019-01-13T06:59:38.075Z,31.63
2019-01-13T07:02:26.554Z,25.90
2019-01-13T07:05:15.209Z,25.17
2019-01-13T07:08:03.834Z,32.43
2019-01-13T07:10:51.571Z,23.67
2019-01-13T07:13:39.999Z,21.57
2019-01-13T07:16:28.403Z,23.93
2019-01-13T07:19:16.217Z,22.77
2019-01-13T07:22:04.597Z,19.70
2019-01-13T07:24:52.871Z,21.67
2019-01-13T07:27:41.796Z,20.10
2019-01-13T07:30:30.072Z,21.53
2019-01-13T07:33:18.146Z,18.57
2019-01-13T07:36:06.751Z,21.33
2019-01-13T07:38:54.344Z,21.43
2019-01-13T07:41:42.503Z,17.27
2019-01-13T07:44:30.167Z,17.20
2019-01-13T07:47:18.384Z,18.63
2019-01-13T07:50:08.432Z,18.03
2019-01-13T07:52:56.343Z,15.70
2019-01-13T07:55:44.231Z,14.63
2019-01-13T07:58:33.013Z,15.10
2019-01-13T08:01:21.170Z,15.43
2019-01-13T08:04:09.606Z,13.83
2019-01-13T08:06:57.720Z,16.97
2019-01-13T08:09:46.117Z,16.30
2019-01-13T08:12:34.359Z,15.47
2019-01-13T08:15:22.579Z,18.07
2019-01-13T08:18:11.091Z,16.00
2019-01-13T08:20:59.391Z,18.70
2019-01-13T08:23:46.937Z,17.43
2019-01-13T08:26:35.278Z,18.87
2019-01-13T08:29:23.259Z,19.90
2019-01-13T08:32:11.371Z,24.90
2019-01-13T08:34:59.674Z,21.43
2019-01-13T08:37:47.491Z,22.83
2019-01-13T08:40:35.460Z,21.33
2019-01-13T08:43:23.031Z,27.63
2019-01-13T08:46:11.587Z,28.23
2019-01-13T08:48:59.504Z,24.57
2019-01-13T08:51:47.637Z,24.73
2019-01-13T08:54:35.603Z,24.90
2019-01-13T08:57:24.139Z,23.47
2019-01-13T09:00:16.313Z,22.63
2019-01-13T09:03:05.989Z,19.43
2019-01-13T09:05:53.637Z,20.23
2019-01-13T09:08:41.396Z,21.53
2019-01-13T09:11:29.524Z,24.73
2019-01-13T09:14:17.828Z,24.60
2019-01-13T09:17:06.143Z,17.07
2019-01-13T09:19:54.289Z,18.63
2019-01-13T09:22:42.763Z,17.20
2019-01-13T09:25:31.949Z,23.17
2019-01-13T09:28:20.339Z,16.27
2019-01-13T09:31:08.966Z,18.50
2019-01-13T09:33:57.743Z,13.10
2019-01-13T09:36:45.703Z,11.70
2019-01-13T09:39:33.586Z,11.83
2019-01-13T09:42:21.815Z,11.73
2019-01-13T09:45:10.807Z,14.27
2019-01-13T09:47:59.231Z,18.90
2019-01-13T09:50:47.751Z,13.93
2019-01-13T09:53:36.121Z,13.30
2019-01-13T09:56:24.695Z,13.83
2019-01-13T09:59:13.007Z,11.70
2019-01-13T10:02:00.843Z,19.20
2019-01-13T10:04:49.362Z,18.43
2019-01-13T10:07:37.610Z,14.50
2019-01-13T10:10:25.965Z,12.50
2019-01-13T10:13:14.487Z,13.80
2019-01-13T10:16:02.797Z,13.70
2019-01-13T10:18:50.923Z,15.13
2019-01-13T10:21:39.129Z,13.00
2019-01-13T10:24:27.214Z,12.60
2019-01-13T10:27:14.759Z,14.77
2019-01-13T10:30:02.934Z,14.23
2019-01-13T10:32:54.527Z,15.23
2019-01-13T10:35:41.567Z,17.43
2019-01-13T10:38:29.719Z,18.30
2019-01-13T10:41:17.713Z,18.07
2019-01-13T10:44:05.999Z,14.67
2019-01-13T10:46:54.222Z,15.40
2019-01-13T10:49:42.383Z,16.23
2019-01-13T10:52:30.414Z,14.90
2019-01-13T10:55:18.773Z,12.90
2019-01-13T10:58:07.422Z,13.00
2019-01-13T11:00:55.439Z,14.43
2019-01-13T11:03:43.456Z,12.23
2019-01-13T11:06:31.895Z,10.33
2019-01-13T11:09:19.835Z,11.63
2019-01-13T11:12:08.320Z,10.17
2019-01-13T11:14:56.538Z,8.47
2019-01-13T11:17:45.003Z,9.33
2019-01-13T11:20:38.267Z,10.93
2019-01-13T11:23:26.368Z,11.07
2019-01-13T11:26:14.793Z,14.60
2019-01-13T11:29:02.614Z,12.73
2019-01-13T11:31:51.069Z,11.83
2019-01-13T11:34:39.239Z,12.80
2019-01-13T11:37:27.433Z,12.80
2019-01-13T11:40:24.307Z,10.40
2019-01-13T11:43:12.817Z,10.00
2019-01-13T11:46:01.141Z,8.60
2019-01-13T11:48:48.685Z,8.27
2019-01-13T11:51:36.952Z,9.17
2019-01-13T11:54:25.903Z,8.57
2019-01-13T11:57:14.322Z,11.83
2019-01-13T12:00:02.399Z,9.73
2019-01-13T12:02:50.507Z,9.17
2019-01-13T12:05:38.939Z,10.30
2019-01-13T12:08:27.258Z,7.93
2019-01-13T12:11:16.068Z,8.43
2019-01-13T12:14:04.591Z,10.20
2019-01-13T12:16:53.019Z,8.03
2019-01-13T12:19:41.598Z,6.97
2019-01-13T12:22:29.951Z,8.60
2019-01-13T12:25:18.787Z,8.20
2019-01-13T12:28:06.361Z,9.90
2019-01-13T12:30:54.439Z,8.20
2019-01-13T12:33:42.857Z,8.60
2019-01-13T12:36:31.535Z,8.30
2019-01-13T12:39:20.015Z,9.00
2019-01-13T12:42:07.698Z,8.87
2019-01-13T12:44:55.898Z,7.37
2019-01-13T12:47:44.498Z,9.40
2019-01-13T12:50:32.824Z,8.93
2019-01-13T12:53:21.595Z,7.77
2019-01-13T12:56:09.846Z,7.20
2019-01-13T12:58:58.010Z,8.80
2019-01-13T13:01:46.758Z,8.67
2019-01-13T13:04:34.468Z,8.63
2019-01-13T13:07:22.923Z,7.50
2019-01-13T13:10:34.510Z,12.20
2019-01-13T13:13:22.815Z,8.90
2019-01-13T13:16:11.081Z,9.17
2019-01-13T13:18:59.592Z,11.27
2019-01-13T13:21:48.333Z,10.23
2019-01-13T13:24:36.374Z,9.33
2019-01-13T13:27:24.539Z,9.50
2019-01-13T13:30:15.780Z,8.10
2019-01-13T13:33:04.446Z,8.93
2019-01-13T13:35:52.651Z,8.77
2019-01-13T13:38:40.876Z,9.10
2019-01-13T13:41:28.904Z,11.00
2019-01-13T13:44:17.304Z,8.57
2019-01-13T13:47:05.546Z,7.60
2019-01-13T13:49:53.732Z,9.83
2019-01-13T13:52:42.046Z,10.17
2019-01-13T13:55:30.481Z,9.47
2019-01-13T13:58:18.394Z,7.63
2019-01-13T14:01:06.851Z,8.63
2019-01-13T14:03:55.311Z,7.73
2019-01-13T14:06:43.299Z,7.53
2019-01-13T14:09:31.078Z,8.93
2019-01-13T14:12:19.474Z,10.50
2019-01-13T14:15:08.291Z,8.53
2019-01-13T14:17:56.392Z,7.83
2019-01-13T14:20:47.891Z,7.50
2019-01-13T14:23:36.346Z,8.90
2019-01-13T14:26:24.675Z,12.17
2019-01-13T14:29:12.631Z,9.20
2019-01-13T14:32:00.874Z,8.87
2019-01-13T14:34:49.147Z,7.93
2019-01-13T14:37:37.483Z,9.43
2019-01-13T14:40:25.806Z,12.23
2019-01-13T14:43:13.978Z,9.63
2019-01-13T14:46:02.211Z,9.40
2019-01-13T14:48:50.710Z,9.13
2019-01-13T14:51:38.367Z,7.50
2019-01-13T14:54:26.763Z,7.83
2019-01-13T14:57:14.759Z,8.23
2019-01-13T15:00:03.036Z,9.83
2019-01-13T15:02:51.141Z,7.57
2019-01-13T15:05:39.463Z,6.70
2019-01-13T15:08:27.614Z,7.00
2019-01-13T15:11:15.667Z,8.40
2019-01-13T15:14:03.362Z,7.90
2019-01-13T15:16:51.547Z,6.93
2019-01-13T15:19:39.991Z,10.40
2019-01-13T15:22:28.032Z,8.70
2019-01-13T15:25:27.776Z,9.03
2019-01-13T15:28:16.772Z,12.17
2019-01-13T15:31:05.146Z,13.30
2019-01-13T15:33:52.715Z,13.40
2019-01-13T15:36:40.802Z,9.17
2019-01-13T15:39:28.827Z,10.63
2019-01-13T15:42:16.879Z,9.53
2019-01-13T15:45:06.490Z,10.50
2019-01-13T15:47:55.054Z,13.73
2019-01-13T15:50:43.235Z,15.50
2019-01-13T15:53:31.418Z,18.33
2019-01-13T15:56:19.829Z,12.80
2019-01-13T15:59:08.683Z,20.30
2019-01-13T16:01:57.159Z,21.33
2019-01-13T16:04:45.141Z,16.70
2019-01-13T16:07:33.346Z,16.20
2019-01-13T16:10:23.387Z,18.60
2019-01-13T16:13:11.591Z,22.60
2019-01-13T16:16:00.052Z,20.63
2019-01-13T16:18:47.931Z,19.10
2019-01-13T16:21:35.706Z,15.70
2019-01-13T16:24:24.119Z,16.57
2019-01-13T16:27:12.686Z,19.53
2019-01-13T16:30:00.350Z,19.30
2019-01-13T16:32:48.474Z,17.73
2019-01-13T16:35:37.050Z,18.17
2019-01-13T16:38:24.906Z,18.67
2019-01-13T16:41:13.506Z,25.23
2019-01-13T16:44:01.739Z,17.80
2019-01-13T16:46:50.466Z,16.17
2019-01-13T16:49:38.902Z,18.83
2019-01-13T16:52:27.054Z,18.33
2019-01-13T16:55:14.798Z,19.10
2019-01-13T16:58:03.077Z,15.90
2019-01-13T17:00:51.323Z,21.07
2019-01-13T17:03:39.904Z,22.00
2019-01-13T17:06:28.194Z,19.03
2019-01-13T17:09:16.694Z,18.63
2019-01-13T17:12:04.804Z,16.83
2019-01-13T17:14:52.939Z,18.10
2019-01-13T17:17:40.566Z,17.10
2019-01-13T17:20:28.643Z,12.70
2019-01-13T17:23:17.338Z,15.37
2019-01-13T17:26:05.434Z,18.60
2019-01-13T17:28:53.868Z,29.10
2019-01-13T17:31:42.102Z,12.93
2019-01-13T17:34:35.863Z,19.23
2019-01-13T17:37:20.315Z,10.87
2019-01-13T17:40:11.176Z,13.13
2019-01-13T17:42:59.139Z,12.30
2019-01-13T17:45:47.659Z,6.33
2019-01-13T17:48:36.167Z,5.23
2019-01-13T17:51:24.210Z,6.93
2019-01-13T17:54:12.520Z,10.57
2019-01-13T17:57:00.723Z,4.30
2019-01-13T17:59:49.199Z,7.73
2019-01-13T18:02:37.419Z,5.40
2019-01-13T18:05:25.935Z,6.80
2019-01-13T18:08:14.048Z,3.30
2019-01-13T18:11:02.271Z,11.17
2019-01-13T18:13:50.818Z,8.27
2019-01-13T18:16:39.359Z,10.60
2019-01-13T18:19:27.279Z,9.83
2019-01-13T18:22:15.059Z,8.23
2019-01-13T18:25:03.318Z,9.07
2019-01-13T18:27:51.307Z,7.73
2019-01-13T18:30:40.088Z,6.97
2019-01-13T18:33:29.618Z,9.63
2019-01-13T18:36:18.367Z,6.83
2019-01-13T18:39:10.273Z,9.73
2019-01-13T18:41:59.065Z,15.13
2019-01-13T18:44:51.916Z,10.57
2019-01-13T18:47:40.843Z,11.13
2019-01-13T18:50:29.378Z,13.50
2019-01-13T18:53:18.036Z,10.80
2019-01-13T18:56:06.770Z,8.90
2019-01-13T18:58:54.939Z,9.93
2019-01-13T19:01:43.084Z,9.50
2019-01-13T19:04:30.959Z,11.97
2019-01-13T19:07:18.867Z,10.60
2019-01-13T19:10:21.735Z,14.13
2019-01-13T19:13:15.935Z,13.80
2019-01-13T19:16:03.479Z,14.03
2019-01-13T19:18:51.538Z,11.93
2019-01-13T19:21:40.038Z,21.43
2019-01-13T19:24:28.228Z,15.23
2019-01-13T19:27:16.221Z,14.87
2019-01-13T19:30:04.447Z,13.10
2019-01-13T19:32:52.778Z,18.13
2019-01-13T19:35:40.895Z,20.73
2019-01-13T19:38:29.835Z,12.13
2019-01-13T19:41:18.083Z,16.50
2019-01-13T19:44:06.975Z,11.80
2019-01-13T19:46:54.915Z,20.30
2019-01-13T19:49:43.502Z,12.63
2019-01-13T19:52:31.402Z,20.33
2019-01-13T19:55:19.928Z,20.87
2019-01-13T19:58:08.195Z,21.67
2019-01-13T20:00:56.506Z,12.10
2019-01-13T20:03:44.510Z,9.00
2019-01-13T20:06:32.918Z,17.60
2019-01-13T20:09:21.511Z,8.43
2019-01-13T20:12:09.749Z,8.60
2019-01-13T20:14:57.698Z,13.67
2019-01-13T20:17:45.964Z,13.53
2019-01-13T20:20:34.048Z,13.07
2019-01-13T20:23:22.295Z,18.70
2019-01-13T20:26:10.719Z,13.87
2019-01-13T20:28:58.859Z,19.60
2019-01-13T20:31:46.379Z,18.03
2019-01-13T20:34:34.834Z,9.50
2019-01-13T20:37:23.078Z,14.50
2019-01-13T20:40:11.894Z,18.13
2019-01-13T20:43:00.233Z,16.53
2019-01-13T20:45:48.141Z,13.60
2019-01-13T20:48:36.647Z,20.00
2019-01-13T20:51:24.678Z,15.10
2019-01-13T20:54:13.163Z,13.00
2019-01-13T20:57:01.963Z,24.87
2019-01-13T20:59:50.715Z,16.83
2019-01-13T21:02:39.047Z,17.13
2019-01-13T21:05:27.850Z,16.50
2019-01-13T21:08:16.148Z,19.50
2019-01-13T21:11:04.806Z,11.87
2019-01-13T21:13:52.787Z,16.47
2019-01-13T21:16:41.336Z,9.47
2019-01-13T21:19:30.660Z,14.77
2019-01-13T21:22:18.607Z,12.87
2019-01-13T21:25:09.020Z,17.90
2019-01-13T21:28:00.206Z,15.00
2019-01-13T21:30:48.768Z,19.57
2019-01-13T21:33:36.651Z,12.60
2019-01-13T21:36:24.550Z,12.23
2019-01-13T21:39:13.032Z,17.83
2019-01-13T21:42:01.012Z,8.80
2019-01-13T21:44:49.387Z,12.60
2019-01-13T21:47:37.446Z,15.13
2019-01-13T21:50:25.750Z,16.07
2019-01-13T21:53:13.690Z,16.07
2019-01-13T21:56:01.972Z,12.47
2019-01-13T21:58:50.143Z,14.73
2019-01-13T22:01:38.522Z,14.33
2019-01-13T22:04:26.823Z,15.33
2019-01-13T22:07:14.855Z,21.33
2019-01-13T22:10:04.292Z,17.40
2019-01-13T22:12:53.096Z,19.73
2019-01-13T22:15:41.595Z,12.40
2019-01-13T22:18:29.697Z,16.53
2019-01-13T22:21:17.470Z,17.37
2019-01-13T22:24:05.742Z,15.63
2019-01-13T22:26:54.023Z,10.20
2019-01-13T22:29:42.346Z,17.33
2019-01-13T22:32:30.235Z,16.00
2019-01-13T22:35:19.152Z,13.13
2019-01-13T22:38:07.154Z,13.93
2019-01-13T22:40:55.162Z,18.97
2019-01-13T22:43:43.427Z,15.93
2019-01-13T22:46:31.155Z,13.57
2019-01-13T22:49:18.986Z,15.73
2019-01-13T22:52:08.163Z,13.90
2019-01-13T22:54:56.187Z,18.63
2019-01-13T22:57:45.234Z,10.07
2019-01-13T23:01:19.606Z,11.90
2019-01-13T23:04:17.886Z,10.87
2019-01-13T23:07:06.319Z,10.63
2019-01-13T23:09:54.293Z,9.93
2019-01-13T23:12:42.725Z,20.37
2019-01-13T23:15:31.203Z,11.27
2019-01-13T23:18:19.689Z,18.23
2019-01-13T23:21:08.091Z,14.33
2019-01-13T23:23:56.763Z,11.53
2019-01-13T23:26:45.034Z,14.90
2019-01-13T23:29:33.299Z,11.73
2019-01-13T23:32:21.316Z,12.60
2019-01-13T23:35:09.639Z,12.57
2019-01-13T23:37:58.178Z,10.07
2019-01-13T23:40:45.994Z,11.70
2019-01-13T23:43:34.011Z,10.70
2019-01-13T23:46:22.627Z,17.57
2019-01-13T23:49:11.668Z,13.83
2019-01-13T23:51:59.634Z,13.40
2019-01-13T23:54:47.574Z,15.80
2019-01-13T23:57:35.550Z,10.70
